McClelland, Iowa
Current Conditions -  °F | °C
As of 1:55 PM on Thursday 23 Oct 2014 (Local Time) from KCBF Reporting Station
Clear Clear  
Wind Chill: 70°   Ceiling: Unl
Heat Index: 70°   Visibility: 10mi
Dew Point: 55°   Wind: 6mph
Humidity: 60%   Direction: 240°WSW
Pressure: 30.03"   Gusts: NA
Location:  41.33°N, 95.68°W
Report Text: KCBF 231855Z AUTO 24005KT 10SM CLR 21/13 A3003 RMK AO2
Loading
Personal Weather Stations






























Interactive Weather Map
Tropical Storm Tracking
New forecast layout! Learn more

10-Day Weather Forecast

Advertisements
Track Severe Weather on mobile